createdAt,value
2019-04-24T00:01:17.757Z,5.17
2019-04-24T00:04:02.884Z,4.77
2019-04-24T00:06:24.770Z,5.33
2019-04-24T00:11:53.766Z,4.30
2019-04-24T00:14:31.383Z,4.10
2019-04-24T00:19:43.708Z,4.13
2019-04-24T00:25:16.045Z,4.17
2019-04-24T00:27:56.238Z,4.33
2019-04-24T00:30:22.977Z,4.50
2019-04-24T00:33:15.328Z,4.27
2019-04-24T00:35:57.491Z,4.37
2019-04-24T00:41:21.850Z,4.87
2019-04-24T00:44:06.414Z,5.03
2019-04-24T00:51:44.477Z,4.27
2019-04-24T00:57:04.920Z,4.83
2019-04-24T00:59:37.476Z,4.43
2019-04-24T01:10:48.817Z,4.20
2019-04-24T01:13:36.968Z,4.60
2019-04-24T01:18:40.963Z,4.23
2019-04-24T01:21:30.703Z,4.73
2019-04-24T01:26:43.852Z,3.67
2019-04-24T01:32:01.034Z,4.10
2019-04-24T01:37:38.594Z,3.63
2019-04-24T01:40:04.722Z,3.80
2019-04-24T01:42:40.927Z,4.27
2019-04-24T01:55:35.206Z,4.20
2019-04-24T01:58:37.043Z,4.30
2019-04-24T02:03:39.422Z,4.10
2019-04-24T02:06:18.105Z,4.00
2019-04-24T02:08:51.322Z,3.93
2019-04-24T02:17:10.345Z,3.97
2019-04-24T02:19:32.985Z,4.60
2019-04-24T02:22:01.865Z,4.60
2019-04-24T02:24:36.010Z,4.63
2019-04-24T02:27:21.380Z,4.17
2019-04-24T02:29:38.345Z,4.03
2019-04-24T02:37:55.711Z,4.10
2019-04-24T02:43:23.100Z,4.00
2019-04-24T02:45:56.896Z,4.07
2019-04-24T02:51:26.554Z,3.90
2019-04-24T03:01:42.935Z,3.97
2019-04-24T03:04:12.094Z,3.80
2019-04-24T03:07:10.953Z,4.27
2019-04-24T03:09:21.432Z,3.90
2019-04-24T03:27:24.212Z,4.50
2019-04-24T03:30:32.844Z,3.87
2019-04-24T03:40:49.284Z,4.00
2019-04-24T03:48:21.529Z,3.83
2019-04-24T03:53:51.585Z,4.03
2019-04-24T04:01:41.515Z,3.90
2019-04-24T04:12:14.794Z,3.97
2019-04-24T04:17:35.071Z,4.00
2019-04-24T04:19:52.749Z,4.63
2019-04-24T04:22:47.262Z,4.80
2019-04-24T04:27:51.657Z,4.17
2019-04-24T04:30:50.513Z,4.13
2019-04-24T04:35:27.133Z,4.50
2019-04-24T04:43:05.720Z,3.97
2019-04-24T04:48:27.030Z,3.93
2019-04-24T04:53:30.889Z,3.80
2019-04-24T05:09:36.874Z,3.80
2019-04-24T05:11:34.260Z,4.17
2019-04-24T05:14:19.917Z,4.10
2019-04-24T05:21:42.283Z,4.07
2019-04-24T05:31:46.464Z,3.93
2019-04-24T05:34:28.481Z,3.50
2019-04-24T05:36:58.485Z,3.83
2019-04-24T05:39:37.014Z,4.67
2019-04-24T05:44:28.901Z,5.23
2019-04-24T05:46:56.261Z,4.73
2019-04-24T05:49:58.881Z,4.63
2019-04-24T05:52:34.916Z,5.07
2019-04-24T05:55:01.244Z,4.83
2019-04-24T06:00:29.285Z,5.27
2019-04-24T06:03:26.109Z,5.00
2019-04-24T06:10:54.409Z,4.03
2019-04-24T06:13:35.750Z,4.33
2019-04-24T06:18:57.633Z,5.23
2019-04-24T06:21:19.368Z,4.40
2019-04-24T06:26:20.554Z,4.23
2019-04-24T06:29:23.211Z,4.43
2019-04-24T06:32:04.978Z,4.27
2019-04-24T06:39:42.224Z,3.93
2019-04-24T06:42:03.825Z,4.30
2019-04-24T06:47:45.818Z,3.50
2019-04-24T06:49:43.111Z,3.50
2019-04-24T06:52:27.267Z,3.37
2019-04-24T06:54:49.003Z,2.97
2019-04-24T07:00:58.558Z,3.10
2019-04-24T07:06:22.506Z,3.17
2019-04-24T07:09:12.212Z,3.33
2019-04-24T07:11:20.876Z,3.20
2019-04-24T07:14:13.486Z,3.53
2019-04-24T07:20:54.314Z,3.70
2019-04-24T07:23:24.195Z,4.43
2019-04-24T07:32:15.375Z,4.17
2019-04-24T07:34:32.836Z,3.90
2019-04-24T07:37:46.736Z,3.60
2019-04-24T07:40:43.037Z,3.53
2019-04-24T07:45:50.788Z,3.23
2019-04-24T07:48:44.253Z,3.53
2019-04-24T07:54:30.007Z,3.90
2019-04-24T08:06:46.056Z,3.70
2019-04-24T08:15:04.977Z,3.70
2019-04-24T08:22:49.526Z,4.23
2019-04-24T08:26:09.789Z,3.43
2019-04-24T08:28:45.689Z,3.90
2019-04-24T08:37:43.772Z,3.90
2019-04-24T08:40:26.285Z,4.33
2019-04-24T08:53:40.292Z,3.90
2019-04-24T08:59:33.810Z,3.60
2019-04-24T09:02:34.861Z,3.47
2019-04-24T09:07:56.736Z,3.30
2019-04-24T09:13:39.956Z,3.60
2019-04-24T09:16:37.766Z,2.90
2019-04-24T09:26:17.366Z,3.13
2019-04-24T09:28:01.738Z,3.30
2019-04-24T09:33:40.208Z,3.33
2019-04-24T09:39:09.159Z,3.53
2019-04-24T09:41:39.907Z,3.13
2019-04-24T09:47:02.367Z,3.60
2019-04-24T09:49:36.540Z,3.43
2019-04-24T09:52:57.524Z,3.60
2019-04-24T09:55:22.157Z,4.20
2019-04-24T09:58:14.602Z,3.73
2019-04-24T10:01:18.519Z,3.73
2019-04-24T10:04:03.538Z,3.80
2019-04-24T10:06:56.090Z,3.70
2019-04-24T10:09:15.426Z,3.20
2019-04-24T10:12:04.572Z,2.77
2019-04-24T10:15:05.953Z,3.77
2019-04-24T10:17:19.551Z,3.07
2019-04-24T10:20:01.618Z,3.53
2019-04-24T10:22:16.479Z,3.67
2019-04-24T10:27:38.162Z,3.40
2019-04-24T10:30:35.117Z,3.23
2019-04-24T11:57:44.276Z,3.50
2019-04-24T11:59:38.108Z,3.20
2019-04-24T12:05:06.592Z,3.10
2019-04-24T12:07:41.667Z,4.10
2019-04-24T12:10:14.139Z,4.03
2019-04-24T12:12:31.955Z,3.67
2019-04-24T12:15:09.732Z,3.83
2019-04-24T12:17:53.191Z,3.40
2019-04-24T12:20:31.601Z,3.67
2019-04-24T12:25:37.089Z,4.43
2019-04-24T12:30:40.600Z,3.60
2019-04-24T12:33:02.817Z,3.23
2019-04-24T12:35:34.714Z,3.93
2019-04-24T12:38:16.194Z,3.20
2019-04-24T12:40:56.666Z,3.00
2019-04-24T12:48:41.863Z,3.33
2019-04-24T12:51:04.915Z,3.33
2019-04-24T12:53:36.454Z,2.77
2019-04-24T12:56:07.661Z,3.43
2019-04-24T13:04:34.923Z,3.17
2019-04-24T13:06:38.443Z,2.90
2019-04-24T13:12:06.664Z,3.23
2019-04-24T13:14:53.906Z,2.97
2019-04-24T13:17:22.547Z,2.93
2019-04-24T13:21:54.399Z,3.13
2019-04-24T13:24:43.760Z,2.80
2019-04-24T13:27:26.449Z,3.30
2019-04-24T14:05:16.877Z,2.83
2019-04-24T14:08:20.151Z,2.80
2019-04-24T14:19:07.675Z,2.90
2019-04-24T14:51:04.864Z,0.80
2019-04-24T14:53:46.684Z,0.80
2019-04-24T14:56:06.567Z,0.77
2019-04-24T14:58:48.257Z,0.83
2019-04-24T15:01:10.295Z,1.00
2019-04-24T15:03:50.044Z,0.97
2019-04-24T15:06:22.413Z,1.10
2019-04-24T15:08:53.832Z,0.80
2019-04-24T15:11:21.871Z,0.90
2019-04-24T15:19:27.497Z,1.00
2019-04-24T15:21:57.030Z,1.30
2019-04-24T15:25:02.759Z,0.90
2019-04-24T15:27:06.657Z,1.00
2019-04-24T15:29:35.598Z,1.13
2019-04-24T15:32:10.564Z,1.27
2019-04-24T15:34:59.242Z,1.10
2019-04-24T15:37:41.368Z,0.90
2019-04-24T15:40:41.537Z,0.80
2019-04-24T15:44:42.229Z,0.70
2019-04-24T15:45:37.435Z,0.90
2019-04-24T15:48:30.782Z,0.90
2019-04-24T15:50:53.137Z,1.30
2019-04-24T15:52:49.209Z,1.10
2019-04-24T15:55:24.426Z,0.90
2019-04-24T15:57:56.348Z,0.90
2019-04-24T16:01:17.990Z,0.80
2019-04-24T16:05:54.746Z,1.03
2019-04-24T16:08:33.523Z,1.50
2019-04-24T16:11:06.643Z,1.53
2019-04-24T16:13:41.105Z,0.97
2019-04-24T16:22:16.606Z,1.33
2019-04-24T16:24:59.707Z,0.90
2019-04-24T16:27:20.958Z,0.80
2019-04-24T16:53:56.963Z,1.57
2019-04-24T16:56:47.962Z,1.47
2019-04-24T16:59:18.359Z,1.67
2019-04-24T17:27:31.421Z,1.20
2019-04-24T17:32:40.928Z,1.20
2019-04-24T17:35:22.967Z,1.03
2019-04-24T17:37:07.014Z,1.20
2019-04-24T17:39:42.721Z,1.00
2019-04-24T17:42:41.105Z,1.10
2019-04-24T17:55:17.088Z,0.80
2019-04-24T17:59:52.781Z,0.90
2019-04-24T18:02:23.066Z,0.70
2019-04-24T18:04:54.638Z,0.80
2019-04-24T18:07:23.309Z,0.80
2019-04-24T18:09:54.973Z,0.93
2019-04-24T18:12:23.619Z,0.60
2019-04-24T18:14:52.467Z,0.67
2019-04-24T18:17:25.571Z,0.53
2019-04-24T18:19:54.304Z,0.70
2019-04-24T18:22:23.050Z,0.73
2019-04-24T18:24:53.315Z,0.60
2019-04-24T18:27:31.322Z,0.50
2019-04-24T18:30:01.788Z,0.83
2019-04-24T18:32:31.460Z,0.60
2019-04-24T18:35:00.123Z,0.63
2019-04-24T18:37:28.849Z,0.77
2019-04-24T18:39:57.487Z,0.50
2019-04-24T18:42:33.501Z,0.50
2019-04-24T18:45:06.401Z,0.77
2019-04-24T18:47:36.181Z,0.60
2019-04-24T18:50:07.160Z,0.40
2019-04-24T18:52:35.606Z,0.53
2019-04-24T18:55:07.191Z,0.70
2019-04-24T18:57:38.354Z,0.70
2019-04-24T19:00:08.532Z,0.60
2019-04-24T19:02:37.580Z,0.50
2019-04-24T19:05:07.020Z,0.60
2019-04-24T19:07:38.712Z,0.50
2019-04-24T19:10:11.319Z,0.80
2019-04-24T19:12:41.687Z,0.47
2019-04-24T19:15:12.459Z,0.90
2019-04-24T19:17:40.822Z,0.70
2019-04-24T19:20:12.667Z,0.70
2019-04-24T19:22:41.610Z,0.70
2019-04-24T19:25:12.487Z,0.80
2019-04-24T19:27:41.614Z,1.27
2019-04-24T19:30:10.899Z,1.00
2019-04-24T19:32:41.724Z,0.90
2019-04-24T19:35:20.485Z,0.70
2019-04-24T19:37:49.080Z,0.60
2019-04-24T19:40:34.832Z,0.77
2019-04-24T19:42:48.191Z,0.70
2019-04-24T19:45:16.840Z,0.70
2019-04-24T19:47:45.382Z,0.80
2019-04-24T19:50:14.483Z,0.90
2019-04-24T19:52:43.061Z,0.80
2019-04-24T19:55:19.732Z,0.60
2019-04-24T19:57:52.376Z,1.30
2019-04-24T20:00:22.445Z,0.90
2019-04-24T20:02:51.153Z,1.00
2019-04-24T20:05:21.005Z,0.80
2019-04-24T20:07:52.962Z,0.60
2019-04-24T20:10:25.775Z,0.60
2019-04-24T20:12:54.274Z,0.90
2019-04-24T20:15:23.343Z,1.00
2019-04-24T20:17:53.538Z,0.70
2019-04-24T20:20:22.314Z,1.13
2019-04-24T20:22:53.329Z,1.33
2019-04-24T20:25:22.384Z,1.20
2019-04-24T20:27:51.563Z,1.20
2019-04-24T20:30:24.170Z,1.00
2019-04-24T20:32:52.863Z,0.97
2019-04-24T20:35:21.440Z,0.93
2019-04-24T20:37:51.486Z,0.90
2019-04-24T20:40:21.447Z,0.90
2019-04-24T20:42:50.458Z,1.00
2019-04-24T20:45:20.389Z,0.80
2019-04-24T20:47:51.369Z,0.90
2019-04-24T20:50:21.964Z,0.90
2019-04-24T20:52:51.524Z,0.67
2019-04-24T20:55:21.122Z,0.90
2019-04-24T20:57:52.259Z,0.90
2019-04-24T21:00:23.517Z,0.90
2019-04-24T21:02:52.191Z,1.00
2019-04-24T21:05:23.577Z,0.80
2019-04-24T21:07:54.494Z,0.80
2019-04-24T21:10:26.314Z,0.80
2019-04-24T21:12:56.490Z,0.60
2019-04-24T21:15:27.189Z,0.70
2019-04-24T21:17:55.748Z,0.80
2019-04-24T21:20:24.815Z,0.97
2019-04-24T21:22:55.780Z,0.63
2019-04-24T21:25:25.320Z,0.70
2019-04-24T21:27:57.164Z,0.90
2019-04-24T21:30:26.007Z,1.00
2019-04-24T21:32:54.587Z,0.80
2019-04-24T21:35:23.327Z,0.77
2019-04-24T21:37:53.932Z,0.87
2019-04-24T21:40:22.975Z,0.80
2019-04-24T21:42:51.724Z,0.87
2019-04-24T21:45:21.242Z,0.80
2019-04-24T21:47:50.821Z,0.90
2019-04-24T21:50:19.300Z,0.83
2019-04-24T21:52:47.928Z,0.70
2019-04-24T21:55:16.610Z,1.00
2019-04-24T21:58:03.430Z,0.80
2019-04-24T22:00:48.836Z,0.70
2019-04-24T22:03:21.837Z,0.80
2019-04-24T22:05:57.651Z,1.00
2019-04-24T22:08:28.019Z,0.80
2019-04-24T22:10:58.199Z,1.10
2019-04-24T22:13:27.092Z,1.10
2019-04-24T22:15:56.544Z,0.67
2019-04-24T22:18:25.414Z,1.00
2019-04-24T22:20:55.802Z,0.80
2019-04-24T22:23:32.156Z,0.87
2019-04-24T22:26:02.579Z,0.80
2019-04-24T22:28:32.157Z,0.73
2019-04-24T22:31:03.303Z,0.80
2019-04-24T22:33:35.983Z,0.80
2019-04-24T22:36:03.759Z,0.90
2019-04-24T22:38:35.914Z,0.83
2019-04-24T22:41:06.641Z,0.83
2019-04-24T22:43:35.961Z,0.90
2019-04-24T22:46:04.740Z,0.87
2019-04-24T22:48:33.765Z,0.90
2019-04-24T22:51:03.424Z,0.90
2019-04-24T22:53:31.879Z,0.80
2019-04-24T22:56:00.614Z,0.80
2019-04-24T22:58:30.586Z,0.70
2019-04-24T23:01:00.242Z,1.00
2019-04-24T23:03:28.803Z,0.87
2019-04-24T23:05:57.335Z,0.80
2019-04-24T23:08:26.155Z,0.63
2019-04-24T23:10:55.419Z,0.93
2019-04-24T23:13:24.679Z,0.70
2019-04-24T23:15:53.382Z,1.10
2019-04-24T23:18:22.230Z,0.80
2019-04-24T23:20:52.728Z,0.90
2019-04-24T23:23:40.626Z,0.90
2019-04-24T23:26:16.791Z,1.00
2019-04-24T23:28:58.289Z,0.80
2019-04-24T23:31:28.567Z,1.00
2019-04-24T23:33:58.771Z,0.80
2019-04-24T23:36:27.362Z,0.90
2019-04-24T23:38:55.898Z,0.90
2019-04-24T23:41:24.431Z,0.80
2019-04-24T23:43:53.120Z,0.90
2019-04-24T23:46:21.960Z,0.80
2019-04-24T23:48:52.124Z,0.90
2019-04-24T23:51:38.117Z,0.80
2019-04-24T23:54:06.744Z,1.00
2019-04-24T23:56:36.156Z,1.00
2019-04-24T23:59:06.352Z,0.60
